createdAt,value
2023-05-17T00:00:00.000Z,37.55
2023-05-17T00:15:00.000Z,36.52
2023-05-17T00:30:00.000Z,33
2023-05-17T00:45:00.000Z,31.4
2023-05-17T01:00:00.000Z,29.45
2023-05-17T01:15:00.000Z,27.69
2023-05-17T01:30:00.000Z,29.6
2023-05-17T01:45:00.000Z,26.42
2023-05-17T02:00:00.000Z,26.95
2023-05-17T02:15:00.000Z,25.42
2023-05-17T02:30:00.000Z,27.16
2023-05-17T02:45:00.000Z,29.08
2023-05-17T03:00:00.000Z,28.91
2023-05-17T03:15:00.000Z,27.2
2023-05-17T03:30:00.000Z,24.74
2023-05-17T03:45:00.000Z,19.13
2023-05-17T04:00:00.000Z,18.76
2023-05-17T04:15:00.000Z,16.45
2023-05-17T04:15:00.000Z,16.45
2023-05-17T04:45:00.000Z,15.83
2023-05-17T05:00:00.000Z,17.31
2023-05-17T05:15:00.000Z,16.4
2023-05-17T05:30:00.000Z,14.6
2023-05-17T05:45:00.000Z,12.84
2023-05-17T06:00:00.000Z,11.06
2023-05-17T06:15:00.000Z,8.42
2023-05-17T06:30:00.000Z,9.6
2023-05-17T06:45:00.000Z,13.2
2023-05-17T07:00:00.000Z,9
2023-05-17T07:15:00.000Z,13.13
2023-05-17T07:30:00.000Z,19.82
2023-05-17T07:45:00.000Z,9.67
2023-05-17T08:00:00.000Z,15.59
2023-05-17T08:15:00.000Z,10.68
2023-05-17T08:30:00.000Z,29.96
2023-05-17T08:45:00.000Z,19.66
2023-05-17T09:00:00.000Z,18.33
2023-05-17T09:15:00.000Z,20.79
2023-05-17T09:30:00.000Z,14.87
2023-05-17T09:45:00.000Z,10.53
2023-05-17T10:00:00.000Z,6.33
2023-05-17T10:15:00.000Z,8.28
2023-05-17T10:30:00.000Z,5.22
2023-05-17T10:45:00.000Z,7.81
2023-05-17T11:00:00.000Z,10.25
2023-05-17T11:15:00.000Z,9.76
2023-05-17T11:30:00.000Z,6.11
2023-05-17T11:45:00.000Z,7.36
2023-05-17T12:00:00.000Z,7.31
2023-05-17T12:15:00.000Z,5.86
2023-05-17T12:30:00.000Z,5.09
2023-05-17T12:45:00.000Z,6.27
2023-05-17T13:00:00.000Z,5.95
2023-05-17T13:15:00.000Z,5.98
2023-05-17T13:30:00.000Z,5.41
2023-05-17T13:45:00.000Z,7.33
2023-05-17T14:00:00.000Z,4.56
2023-05-17T14:15:00.000Z,6.48
2023-05-17T14:30:00.000Z,7.54
2023-05-17T14:45:00.000Z,12.12
2023-05-17T15:00:00.000Z,10.65
2023-05-17T15:15:00.000Z,8.65
2023-05-17T15:30:00.000Z,7.16
2023-05-17T15:45:00.000Z,8.41
2023-05-17T16:00:00.000Z,7.34
2023-05-17T16:15:00.000Z,5.55
2023-05-17T16:30:00.000Z,5.91
2023-05-17T16:45:00.000Z,4.61
2023-05-17T17:00:00.000Z,4.93
2023-05-17T17:15:00.000Z,4.47
2023-05-17T17:30:00.000Z,4.07
2023-05-17T17:45:00.000Z,4.02
2023-05-17T18:00:00.000Z,5.09
2023-05-17T18:15:00.000Z,7.29
2023-05-17T18:30:00.000Z,9.85
2023-05-17T18:45:00.000Z,10.22
2023-05-17T19:00:00.000Z,11.21
2023-05-17T19:15:00.000Z,12.43
2023-05-17T19:30:00.000Z,14.54
2023-05-17T19:45:00.000Z,13.92
2023-05-17T20:00:00.000Z,12.87
2023-05-17T20:15:00.000Z,11.11
2023-05-17T20:30:00.000Z,12.21
2023-05-17T20:45:00.000Z,12.75
2023-05-17T21:00:00.000Z,11.62
2023-05-17T21:15:00.000Z,11.86
2023-05-17T21:30:00.000Z,10.51
2023-05-17T21:45:00.000Z,9.93
2023-05-17T22:00:00.000Z,9.26
2023-05-17T22:15:00.000Z,11.56
2023-05-17T22:30:00.000Z,10.12
2023-05-17T22:45:00.000Z,9.66
2023-05-17T23:00:00.000Z,10.15
2023-05-17T23:15:00.000Z,9.52
2023-05-17T23:30:00.000Z,9.11
2023-05-17T23:45:00.000Z,8.18
